This is the latest recevied weather packets stored in our database for station/object W9GWP. If no packets are shown the sender has not sent any weather packets the latest 10 day(s).
| Time | Temp. | Humidity | Pressure | Rain* | Wind** | Luminosity | Snow |
|---|---|---|---|---|---|---|---|
| 1777888381 | 8.33° C | 85% | 1032.6 hPa | 0 mm | - | 0 W/m² | - |
| 1777887478 | 8.33° C | 85% | 1032.7 hPa | 0 mm | - | 0 W/m² | - |
| 1777886577 | 8.89° C | 84% | 1032.7 hPa | 0 mm | - | 0 W/m² | - |
| 1777885678 | 8.33° C | 86% | 1032.7 hPa | 0 mm | - | 0 W/m² | - |
| 1777884775 | 7.78° C | 87% | 1032.3 hPa | 0 mm | - | 0 W/m² | - |
| 1777883871 | 8.33° C | 86% | 1032.6 hPa | 0 mm | - | 0 W/m² | - |
| 1777882971 | 8.33° C | 85% | 1032.4 hPa | 0 mm | - | 0 W/m² | - |
| 1777882067 | 9.44° C | 83% | 1032.5 hPa | 0 mm | - | 0 W/m² | - |
| 1777881163 | 9.44° C | 82% | 1032.8 hPa | 0 mm | - | 0 W/m² | - |
| 1777880263 | 10° C | 81% | 1033.1 hPa | 0 mm | - | 0 W/m² | - |
| 1777879361 | 10.56° C | 79% | 1033.4 hPa | 0 mm | - | 0 W/m² | - |
| 1777878459 | 11.11° C | 77% | 1033.6 hPa | 0 mm | - | 0 W/m² | - |
| 1777877554 | 11.67° C | 76% | 1033.5 hPa | 0 mm | - | 0 W/m² | - |
| 1777876652 | 12.22° C | 75% | 1033.9 hPa | 0 mm | - | 0 W/m² | - |
| 1777875746 | 12.22° C | 74% | 1034 hPa | 0 mm | - | 0 W/m² | - |
| 1777874842 | 12.78° C | 73% | 1034.3 hPa | 0 mm | - | 0 W/m² | - |
| 1777873939 | 13.33° C | 72% | 1034.1 hPa | 0 mm | - | 0 W/m² | - |
| 1777873035 | 13.33° C | 70% | 1034.4 hPa | 0 mm | - | 0 W/m² | - |
| 1777872133 | 13.89° C | 69% | 1034.4 hPa | 0 mm | - | 0 W/m² | - |
| 1777871229 | 15° C | 66% | 1034.2 hPa | 0 mm | - | 0 W/m² | - |
| 1777870323 | 15° C | 66% | 1034.2 hPa | 0 mm | - | 0 W/m² | - |
| 1777869421 | 13.89° C | 69% | 1033.9 hPa | 0 mm | - | 0 W/m² | - |
| 1777868518 | 13.89° C | 70% | 1034.2 hPa | 0 mm | - | 0 W/m² | - |
| 1777867613 | 13.89° C | 69% | 1034.2 hPa | 0 mm | - | 0 W/m² | - |
| 1777866709 | 14.44° C | 68% | 1034.3 hPa | 0 mm | - | 0 W/m² | - |
* Rain latest hour (hover to see other rain measurements)
** Current wind speed in m/s (hover to see current wind gust speed)